sensor_id;sensor_type;location;lat;lon;timestamp;P1;P2;P0
62631;PMS5003;48703;51.248;-0.546;2022-08-19T00:02:56;5.20;5.20;
62631;PMS5003;48703;51.248;-0.546;2022-08-19T00:05:58;6.30;5.74;
62631;PMS5003;48703;51.248;-0.546;2022-08-19T00:08:59;5.61;4.37;
62631;PMS5003;48703;51.248;-0.546;2022-08-19T00:12:01;5.31;5.13;
62631;PMS5003;48703;51.248;-0.546;2022-08-19T00:15:03;5.97;4.80;
62631;PMS5003;48703;51.248;-0.546;2022-08-19T00:18:04;7.41;7.29;
62631;PMS5003;48703;51.248;-0.546;2022-08-19T00:21:05;5.21;4.80;
62631;PMS5003;48703;51.248;-0.546;2022-08-19T00:24:07;8.00;7.19;
62631;PMS5003;48703;51.248;-0.546;2022-08-19T00:27:08;5.74;5.56;
62631;PMS5003;48703;51.248;-0.546;2022-08-19T00:30:10;5.97;5.97;
62631;PMS5003;48703;51.248;-0.546;2022-08-19T00:33:11;7.44;6.20;
62631;PMS5003;48703;51.248;-0.546;2022-08-19T00:36:12;7.33;6.54;
62631;PMS5003;48703;51.248;-0.546;2022-08-19T00:39:15;5.90;5.69;
62631;PMS5003;48703;51.248;-0.546;2022-08-19T00:42:15;5.03;4.34;
62631;PMS5003;48703;51.248;-0.546;2022-08-19T00:45:19;5.27;5.27;
62631;PMS5003;48703;51.248;-0.546;2022-08-19T00:48:18;4.83;4.83;
62631;PMS5003;48703;51.248;-0.546;2022-08-19T00:51:19;5.34;4.44;
62631;PMS5003;48703;51.248;-0.546;2022-08-19T00:54:21;6.83;6.10;
62631;PMS5003;48703;51.248;-0.546;2022-08-19T00:57:23;5.00;4.29;
62631;PMS5003;48703;51.248;-0.546;2022-08-19T01:00:24;4.94;4.09;
62631;PMS5003;48703;51.248;-0.546;2022-08-19T01:03:25;7.04;5.61;
62631;PMS5003;48703;51.248;-0.546;2022-08-19T01:06:26;4.39;3.37;
62631;PMS5003;48703;51.248;-0.546;2022-08-19T01:09:28;4.93;4.19;
62631;PMS5003;48703;51.248;-0.546;2022-08-19T01:12:29;3.70;3.70;
62631;PMS5003;48703;51.248;-0.546;2022-08-19T01:15:32;4.27;4.00;
62631;PMS5003;48703;51.248;-0.546;2022-08-19T01:18:32;4.73;4.00;
62631;PMS5003;48703;51.248;-0.546;2022-08-19T01:21:34;4.50;3.13;
62631;PMS5003;48703;51.248;-0.546;2022-08-19T01:24:35;4.40;3.61;
62631;PMS5003;48703;51.248;-0.546;2022-08-19T01:27:37;3.06;3.06;
62631;PMS5003;48703;51.248;-0.546;2022-08-19T01:30:38;3.97;3.97;
62631;PMS5003;48703;51.248;-0.546;2022-08-19T01:33:39;5.11;4.33;
62631;PMS5003;48703;51.248;-0.546;2022-08-19T01:36:41;2.80;2.80;
62631;PMS5003;48703;51.248;-0.546;2022-08-19T01:39:42;5.50;4.30;
62631;PMS5003;48703;51.248;-0.546;2022-08-19T01:42:44;3.86;3.79;
62631;PMS5003;48703;51.248;-0.546;2022-08-19T01:45:45;2.83;2.79;
62631;PMS5003;48703;51.248;-0.546;2022-08-19T01:48:46;4.30;3.73;
62631;PMS5003;48703;51.248;-0.546;2022-08-19T01:51:48;3.56;3.09;
62631;PMS5003;48703;51.248;-0.546;2022-08-19T01:54:49;2.90;2.73;
62631;PMS5003;48703;51.248;-0.546;2022-08-19T01:57:53;3.33;2.79;
62631;PMS5003;48703;51.248;-0.546;2022-08-19T02:00:52;2.89;2.76;
62631;PMS5003;48703;51.248;-0.546;2022-08-19T02:03:54;3.30;3.00;
62631;PMS5003;48703;51.248;-0.546;2022-08-19T02:06:57;4.10;3.36;
62631;PMS5003;48703;51.248;-0.546;2022-08-19T02:09:57;3.60;3.30;
62631;PMS5003;48703;51.248;-0.546;2022-08-19T02:12:58;3.91;3.53;
62631;PMS5003;48703;51.248;-0.546;2022-08-19T02:16:00;3.24;3.01;
62631;PMS5003;48703;51.248;-0.546;2022-08-19T02:19:01;4.37;3.69;
62631;PMS5003;48703;51.248;-0.546;2022-08-19T02:22:03;4.40;3.70;
62631;PMS5003;48703;51.248;-0.546;2022-08-19T02:25:04;3.29;3.06;
62631;PMS5003;48703;51.248;-0.546;2022-08-19T02:28:06;4.04;3.23;
62631;PMS5003;48703;51.248;-0.546;2022-08-19T02:31:08;3.27;3.19;
62631;PMS5003;48703;51.248;-0.546;2022-08-19T02:34:08;2.81;2.81;
62631;PMS5003;48703;51.248;-0.546;2022-08-19T02:37:10;3.19;3.09;
62631;PMS5003;48703;51.248;-0.546;2022-08-19T02:40:11;4.16;3.73;
62631;PMS5003;48703;51.248;-0.546;2022-08-19T02:43:13;3.54;3.11;
62631;PMS5003;48703;51.248;-0.546;2022-08-19T02:46:15;3.66;3.66;
62631;PMS5003;48703;51.248;-0.546;2022-08-19T02:49:15;3.89;3.36;
62631;PMS5003;48703;51.248;-0.546;2022-08-19T02:52:17;3.59;3.07;
62631;PMS5003;48703;51.248;-0.546;2022-08-19T02:55:18;2.96;2.96;
62631;PMS5003;48703;51.248;-0.546;2022-08-19T02:58:21;3.69;3.56;
62631;PMS5003;48703;51.248;-0.546;2022-08-19T03:01:22;2.79;2.49;
62631;PMS5003;48703;51.248;-0.546;2022-08-19T03:04:23;3.70;2.93;
62631;PMS5003;48703;51.248;-0.546;2022-08-19T03:07:24;3.19;3.14;
62631;PMS5003;48703;51.248;-0.546;2022-08-19T03:10:26;3.51;3.21;
62631;PMS5003;48703;51.248;-0.546;2022-08-19T03:13:27;2.60;2.39;
62631;PMS5003;48703;51.248;-0.546;2022-08-19T03:16:29;3.36;3.23;
62631;PMS5003;48703;51.248;-0.546;2022-08-19T03:19:30;3.24;2.56;
62631;PMS5003;48703;51.248;-0.546;2022-08-19T03:22:31;2.37;2.37;
62631;PMS5003;48703;51.248;-0.546;2022-08-19T03:25:36;2.36;2.36;
62631;PMS5003;48703;51.248;-0.546;2022-08-19T03:28:34;3.43;2.91;
62631;PMS5003;48703;51.248;-0.546;2022-08-19T03:31:36;2.74;2.71;
62631;PMS5003;48703;51.248;-0.546;2022-08-19T03:34:37;2.63;2.63;
62631;PMS5003;48703;51.248;-0.546;2022-08-19T03:37:38;2.31;2.31;
62631;PMS5003;48703;51.248;-0.546;2022-08-19T03:40:40;4.29;2.91;
62631;PMS5003;48703;51.248;-0.546;2022-08-19T03:43:41;1.97;1.97;
62631;PMS5003;48703;51.248;-0.546;2022-08-19T03:46:43;2.86;2.86;
62631;PMS5003;48703;51.248;-0.546;2022-08-19T03:49:44;1.90;1.90;
62631;PMS5003;48703;51.248;-0.546;2022-08-19T03:52:47;2.99;2.99;
62631;PMS5003;48703;51.248;-0.546;2022-08-19T03:55:47;3.30;2.80;
62631;PMS5003;48703;51.248;-0.546;2022-08-19T03:58:48;2.57;2.10;
62631;PMS5003;48703;51.248;-0.546;2022-08-19T04:01:50;3.49;3.11;
62631;PMS5003;48703;51.248;-0.546;2022-08-19T04:04:53;3.11;2.87;
62631;PMS5003;48703;51.248;-0.546;2022-08-19T04:07:53;2.43;2.43;
62631;PMS5003;48703;51.248;-0.546;2022-08-19T04:10:54;2.76;2.41;
62631;PMS5003;48703;51.248;-0.546;2022-08-19T04:13:55;1.54;1.54;
62631;PMS5003;48703;51.248;-0.546;2022-08-19T04:16:57;3.43;3.43;
62631;PMS5003;48703;51.248;-0.546;2022-08-19T04:19:58;1.63;1.63;
62631;PMS5003;48703;51.248;-0.546;2022-08-19T04:23:00;1.54;1.54;
62631;PMS5003;48703;51.248;-0.546;2022-08-19T04:26:02;2.16;2.16;
62631;PMS5003;48703;51.248;-0.546;2022-08-19T04:29:04;1.97;1.86;
62631;PMS5003;48703;51.248;-0.546;2022-08-19T04:32:04;2.74;2.06;
62631;PMS5003;48703;51.248;-0.546;2022-08-19T04:35:06;2.73;2.23;
62631;PMS5003;48703;51.248;-0.546;2022-08-19T04:38:07;2.71;2.57;
62631;PMS5003;48703;51.248;-0.546;2022-08-19T04:41:08;2.43;1.74;
62631;PMS5003;48703;51.248;-0.546;2022-08-19T04:44:10;3.00;2.84;
62631;PMS5003;48703;51.248;-0.546;2022-08-19T04:47:11;2.23;2.23;
62631;PMS5003;48703;51.248;-0.546;2022-08-19T04:50:13;2.31;1.71;
62631;PMS5003;48703;51.248;-0.546;2022-08-19T04:53:14;2.26;2.26;
62631;PMS5003;48703;51.248;-0.546;2022-08-19T04:56:16;2.49;2.00;
62631;PMS5003;48703;51.248;-0.546;2022-08-19T04:59:17;1.57;1.57;
62631;PMS5003;48703;51.248;-0.546;2022-08-19T05:02:18;2.30;2.30;
62631;PMS5003;48703;51.248;-0.546;2022-08-19T05:05:20;0.94;0.94;
62631;PMS5003;48703;51.248;-0.546;2022-08-19T05:08:22;3.16;2.21;
62631;PMS5003;48703;51.248;-0.546;2022-08-19T05:11:24;3.36;2.33;
62631;PMS5003;48703;51.248;-0.546;2022-08-19T05:14:24;1.37;1.26;
62631;PMS5003;48703;51.248;-0.546;2022-08-19T05:17:26;0.84;0.81;
62631;PMS5003;48703;51.248;-0.546;2022-08-19T05:20:27;1.57;1.57;
62631;PMS5003;48703;51.248;-0.546;2022-08-19T05:23:28;0.66;0.66;
62631;PMS5003;48703;51.248;-0.546;2022-08-19T05:26:30;0.71;0.71;
62631;PMS5003;48703;51.248;-0.546;2022-08-19T05:29:32;0.54;0.54;
62631;PMS5003;48703;51.248;-0.546;2022-08-19T05:32:33;1.06;1.06;
62631;PMS5003;48703;51.248;-0.546;2022-08-19T05:35:35;0.86;0.70;
62631;PMS5003;48703;51.248;-0.546;2022-08-19T05:38:36;0.79;0.79;
62631;PMS5003;48703;51.248;-0.546;2022-08-19T05:41:40;1.14;1.14;
62631;PMS5003;48703;51.248;-0.546;2022-08-19T05:44:40;1.21;1.21;
62631;PMS5003;48703;51.248;-0.546;2022-08-19T05:47:40;1.59;1.59;
62631;PMS5003;48703;51.248;-0.546;2022-08-19T05:50:41;1.50;1.26;
62631;PMS5003;48703;51.248;-0.546;2022-08-19T05:53:43;1.47;1.47;
62631;PMS5003;48703;51.248;-0.546;2022-08-19T05:56:44;0.89;0.89;
62631;PMS5003;48703;51.248;-0.546;2022-08-19T05:59:46;0.83;0.83;
62631;PMS5003;48703;51.248;-0.546;2022-08-19T06:02:47;1.33;1.33;
62631;PMS5003;48703;51.248;-0.546;2022-08-19T06:05:49;2.10;1.76;
62631;PMS5003;48703;51.248;-0.546;2022-08-19T06:08:50;2.67;1.74;
62631;PMS5003;48703;51.248;-0.546;2022-08-19T06:11:53;1.29;1.29;
62631;PMS5003;48703;51.248;-0.546;2022-08-19T06:14:53;0.67;0.67;
62631;PMS5003;48703;51.248;-0.546;2022-08-19T06:17:54;0.81;0.81;
62631;PMS5003;48703;51.248;-0.546;2022-08-19T06:20:56;0.73;0.73;
62631;PMS5003;48703;51.248;-0.546;2022-08-19T06:23:57;0.29;0.09;
62631;PMS5003;48703;51.248;-0.546;2022-08-19T06:26:59;0.41;0.34;
62631;PMS5003;48703;51.248;-0.546;2022-08-19T06:30:00;0.74;0.66;
62631;PMS5003;48703;51.248;-0.546;2022-08-19T06:33:02;0.64;0.61;
62631;PMS5003;48703;51.248;-0.546;2022-08-19T06:36:03;0.29;0.29;
62631;PMS5003;48703;51.248;-0.546;2022-08-19T06:39:06;0.64;0.64;
62631;PMS5003;48703;51.248;-0.546;2022-08-19T06:42:06;1.56;1.43;
62631;PMS5003;48703;51.248;-0.546;2022-08-19T06:45:08;0.67;0.67;
62631;PMS5003;48703;51.248;-0.546;2022-08-19T06:48:09;1.09;0.41;
62631;PMS5003;48703;51.248;-0.546;2022-08-19T06:51:10;0.91;0.30;
62631;PMS5003;48703;51.248;-0.546;2022-08-19T06:54:12;0.56;0.16;
62631;PMS5003;48703;51.248;-0.546;2022-08-19T06:57:13;0.86;0.86;
62631;PMS5003;48703;51.248;-0.546;2022-08-19T07:00:14;0.31;0.20;
62631;PMS5003;48703;51.248;-0.546;2022-08-19T07:03:16;0.77;0.77;
62631;PMS5003;48703;51.248;-0.546;2022-08-19T07:06:18;0.67;0.67;
62631;PMS5003;48703;51.248;-0.546;2022-08-19T07:09:19;1.96;0.91;
62631;PMS5003;48703;51.248;-0.546;2022-08-19T07:12:20;0.91;0.91;
62631;PMS5003;48703;51.248;-0.546;2022-08-19T07:15:22;0.37;0.37;
62631;PMS5003;48703;51.248;-0.546;2022-08-19T07:18:23;1.03;0.73;
62631;PMS5003;48703;51.248;-0.546;2022-08-19T07:21:25;1.84;0.87;
62631;PMS5003;48703;51.248;-0.546;2022-08-19T07:24:26;1.20;1.20;
62631;PMS5003;48703;51.248;-0.546;2022-08-19T07:27:27;0.97;0.94;
62631;PMS5003;48703;51.248;-0.546;2022-08-19T07:30:29;1.74;0.93;
62631;PMS5003;48703;51.248;-0.546;2022-08-19T07:33:30;0.81;0.81;
62631;PMS5003;48703;51.248;-0.546;2022-08-19T07:36:33;0.84;0.84;
62631;PMS5003;48703;51.248;-0.546;2022-08-19T07:39:35;0.51;0.51;
62631;PMS5003;48703;51.248;-0.546;2022-08-19T07:42:35;0.89;0.89;
62631;PMS5003;48703;51.248;-0.546;2022-08-19T07:45:36;1.21;0.93;
62631;PMS5003;48703;51.248;-0.546;2022-08-19T07:48:37;0.83;0.53;
62631;PMS5003;48703;51.248;-0.546;2022-08-19T07:51:39;0.57;0.57;
62631;PMS5003;48703;51.248;-0.546;2022-08-19T07:54:40;1.64;1.14;
62631;PMS5003;48703;51.248;-0.546;2022-08-19T07:57:42;1.07;0.74;
62631;PMS5003;48703;51.248;-0.546;2022-08-19T08:00:44;0.57;0.57;
62631;PMS5003;48703;51.248;-0.546;2022-08-19T08:03:46;0.96;0.56;
62631;PMS5003;48703;51.248;-0.546;2022-08-19T08:06:46;0.87;0.87;
62631;PMS5003;48703;51.248;-0.546;2022-08-19T08:09:47;1.01;0.94;
62631;PMS5003;48703;51.248;-0.546;2022-08-19T08:12:49;1.07;0.64;
62631;PMS5003;48703;51.248;-0.546;2022-08-19T08:15:50;0.64;0.64;
62631;PMS5003;48703;51.248;-0.546;2022-08-19T08:18:52;1.76;0.90;
62631;PMS5003;48703;51.248;-0.546;2022-08-19T08:21:54;1.41;0.80;
62631;PMS5003;48703;51.248;-0.546;2022-08-19T08:24:54;0.84;0.84;
62631;PMS5003;48703;51.248;-0.546;2022-08-19T08:27:56;0.76;0.76;
62631;PMS5003;48703;51.248;-0.546;2022-08-19T08:30:57;1.26;1.26;
62631;PMS5003;48703;51.248;-0.546;2022-08-19T08:33:59;0.97;0.97;
62631;PMS5003;48703;51.248;-0.546;2022-08-19T08:37:00;1.11;0.77;
62631;PMS5003;48703;51.248;-0.546;2022-08-19T08:40:02;1.39;1.39;
62631;PMS5003;48703;51.248;-0.546;2022-08-19T08:43:04;1.76;1.03;
62631;PMS5003;48703;51.248;-0.546;2022-08-19T08:46:06;1.93;1.79;
62631;PMS5003;48703;51.248;-0.546;2022-08-19T08:49:06;2.19;1.20;
62631;PMS5003;48703;51.248;-0.546;2022-08-19T08:52:09;2.40;2.14;
62631;PMS5003;48703;51.248;-0.546;2022-08-19T08:55:10;1.83;1.57;
62631;PMS5003;48703;51.248;-0.546;2022-08-19T08:58:12;1.09;1.09;
62631;PMS5003;48703;51.248;-0.546;2022-08-19T09:01:12;2.06;1.63;
62631;PMS5003;48703;51.248;-0.546;2022-08-19T09:04:13;1.57;1.57;
62631;PMS5003;48703;51.248;-0.546;2022-08-19T09:07:18;2.47;2.47;
62631;PMS5003;48703;51.248;-0.546;2022-08-19T09:10:17;2.26;1.83;
62631;PMS5003;48703;51.248;-0.546;2022-08-19T09:13:20;1.63;1.63;
62631;PMS5003;48703;51.248;-0.546;2022-08-19T09:16:20;2.90;2.31;
62631;PMS5003;48703;51.248;-0.546;2022-08-19T09:19:20;2.24;2.24;
62631;PMS5003;48703;51.248;-0.546;2022-08-19T09:22:22;2.11;2.11;
62631;PMS5003;48703;51.248;-0.546;2022-08-19T09:25:23;1.97;1.94;
62631;PMS5003;48703;51.248;-0.546;2022-08-19T09:28:24;2.46;2.37;
62631;PMS5003;48703;51.248;-0.546;2022-08-19T09:31:27;1.80;1.01;
62631;PMS5003;48703;51.248;-0.546;2022-08-19T09:34:27;1.87;1.87;
62631;PMS5003;48703;51.248;-0.546;2022-08-19T09:37:28;1.66;1.66;
62631;PMS5003;48703;51.248;-0.546;2022-08-19T09:40:30;2.07;1.60;
62631;PMS5003;48703;51.248;-0.546;2022-08-19T09:43:31;3.14;3.01;
62631;PMS5003;48703;51.248;-0.546;2022-08-19T09:46:33;2.64;2.36;
62631;PMS5003;48703;51.248;-0.546;2022-08-19T09:49:34;3.47;3.00;
62631;PMS5003;48703;51.248;-0.546;2022-08-19T09:52:35;3.60;2.70;
62631;PMS5003;48703;51.248;-0.546;2022-08-19T09:55:41;3.10;3.10;
62631;PMS5003;48703;51.248;-0.546;2022-08-19T09:58:39;3.03;2.83;
62631;PMS5003;48703;51.248;-0.546;2022-08-19T10:01:40;2.77;2.77;
62631;PMS5003;48703;51.248;-0.546;2022-08-19T10:04:41;2.74;2.66;
62631;PMS5003;48703;51.248;-0.546;2022-08-19T10:07:42;2.69;2.69;
62631;PMS5003;48703;51.248;-0.546;2022-08-19T10:10:44;3.43;3.29;
62631;PMS5003;48703;51.248;-0.546;2022-08-19T10:13:46;3.50;3.50;
62631;PMS5003;48703;51.248;-0.546;2022-08-19T10:16:47;3.64;2.79;
62631;PMS5003;48703;51.248;-0.546;2022-08-19T10:19:48;3.14;2.70;
62631;PMS5003;48703;51.248;-0.546;2022-08-19T10:22:50;5.54;3.77;
62631;PMS5003;48703;51.248;-0.546;2022-08-19T10:25:51;4.33;2.96;
62631;PMS5003;48703;51.248;-0.546;2022-08-19T10:28:52;3.23;3.23;
62631;PMS5003;48703;51.248;-0.546;2022-08-19T10:31:54;2.43;2.41;
62631;PMS5003;48703;51.248;-0.546;2022-08-19T10:34:55;3.91;3.91;
62631;PMS5003;48703;51.248;-0.546;2022-08-19T10:37:57;3.99;3.26;
62631;PMS5003;48703;51.248;-0.546;2022-08-19T10:41:05;3.54;3.54;
62631;PMS5003;48703;51.248;-0.546;2022-08-19T10:44:02;4.24;3.90;
62631;PMS5003;48703;51.248;-0.546;2022-08-19T10:47:01;4.44;3.59;
62631;PMS5003;48703;51.248;-0.546;2022-08-19T10:50:03;3.40;3.23;
62631;PMS5003;48703;51.248;-0.546;2022-08-19T10:53:04;6.27;4.54;
62631;PMS5003;48703;51.248;-0.546;2022-08-19T10:56:05;4.99;4.47;
62631;PMS5003;48703;51.248;-0.546;2022-08-19T10:59:07;6.13;5.44;
62631;PMS5003;48703;51.248;-0.546;2022-08-19T11:02:09;7.70;5.83;
62631;PMS5003;48703;51.248;-0.546;2022-08-19T11:05:09;6.10;4.90;
62631;PMS5003;48703;51.248;-0.546;2022-08-19T11:08:11;6.06;5.09;
62631;PMS5003;48703;51.248;-0.546;2022-08-19T11:11:12;6.11;4.41;
62631;PMS5003;48703;51.248;-0.546;2022-08-19T11:14:14;5.54;4.27;
62631;PMS5003;48703;51.248;-0.546;2022-08-19T11:17:15;4.73;4.11;
62631;PMS5003;48703;51.248;-0.546;2022-08-19T11:20:16;6.57;4.91;
62631;PMS5003;48703;51.248;-0.546;2022-08-19T11:23:18;4.64;4.54;
62631;PMS5003;48703;51.248;-0.546;2022-08-19T11:26:20;5.29;4.56;
62631;PMS5003;48703;51.248;-0.546;2022-08-19T11:29:21;3.91;3.21;
62631;PMS5003;48703;51.248;-0.546;2022-08-19T11:32:22;3.84;3.67;
62631;PMS5003;48703;51.248;-0.546;2022-08-19T11:35:23;3.46;3.03;
62631;PMS5003;48703;51.248;-0.546;2022-08-19T11:38:25;3.53;3.17;
62631;PMS5003;48703;51.248;-0.546;2022-08-19T11:41:26;4.73;3.80;
62631;PMS5003;48703;51.248;-0.546;2022-08-19T11:44:28;4.41;2.87;
62631;PMS5003;48703;51.248;-0.546;2022-08-19T11:47:29;3.91;3.91;
62631;PMS5003;48703;51.248;-0.546;2022-08-19T11:50:30;4.54;4.03;
62631;PMS5003;48703;51.248;-0.546;2022-08-19T11:53:32;4.44;3.40;
62631;PMS5003;48703;51.248;-0.546;2022-08-19T11:56:33;4.73;4.51;
62631;PMS5003;48703;51.248;-0.546;2022-08-19T11:59:34;4.01;3.01;
62631;PMS5003;48703;51.248;-0.546;2022-08-19T12:02:36;4.36;4.22;
62631;PMS5003;48703;51.248;-0.546;2022-08-19T12:05:37;3.87;3.23;
62631;PMS5003;48703;51.248;-0.546;2022-08-19T12:08:39;3.86;2.44;
62631;PMS5003;48703;51.248;-0.546;2022-08-19T12:11:40;3.27;2.83;
62631;PMS5003;48703;51.248;-0.546;2022-08-19T12:14:41;3.30;2.77;
62631;PMS5003;48703;51.248;-0.546;2022-08-19T12:17:42;5.13;3.51;
62631;PMS5003;48703;51.248;-0.546;2022-08-19T12:20:44;2.87;2.59;
62631;PMS5003;48703;51.248;-0.546;2022-08-19T12:23:45;4.30;3.67;
62631;PMS5003;48703;51.248;-0.546;2022-08-19T12:26:47;3.60;3.04;
62631;PMS5003;48703;51.248;-0.546;2022-08-19T12:29:48;2.99;2.76;
62631;PMS5003;48703;51.248;-0.546;2022-08-19T12:32:49;3.26;3.03;
62631;PMS5003;48703;51.248;-0.546;2022-08-19T12:35:51;4.19;4.19;
62631;PMS5003;48703;51.248;-0.546;2022-08-19T12:38:52;3.80;3.80;
62631;PMS5003;48703;51.248;-0.546;2022-08-19T12:41:54;3.20;3.20;
62631;PMS5003;48703;51.248;-0.546;2022-08-19T12:44:55;3.80;3.37;
62631;PMS5003;48703;51.248;-0.546;2022-08-19T12:47:56;2.41;2.41;
62631;PMS5003;48703;51.248;-0.546;2022-08-19T12:50:58;3.37;3.21;
62631;PMS5003;48703;51.248;-0.546;2022-08-19T12:53:59;3.43;3.26;
62631;PMS5003;48703;51.248;-0.546;2022-08-19T12:57:04;4.07;3.11;
62631;PMS5003;48703;51.248;-0.546;2022-08-19T13:00:05;3.89;2.76;
62631;PMS5003;48703;51.248;-0.546;2022-08-19T13:03:03;4.36;3.60;
62631;PMS5003;48703;51.248;-0.546;2022-08-19T13:06:05;2.96;2.89;
62631;PMS5003;48703;51.248;-0.546;2022-08-19T13:09:06;3.79;3.13;
62631;PMS5003;48703;51.248;-0.546;2022-08-19T13:12:08;3.06;3.06;
62631;PMS5003;48703;51.248;-0.546;2022-08-19T13:15:10;3.17;2.96;
62631;PMS5003;48703;51.248;-0.546;2022-08-19T13:18:11;2.87;2.56;
62631;PMS5003;48703;51.248;-0.546;2022-08-19T13:21:12;3.59;2.04;
62631;PMS5003;48703;51.248;-0.546;2022-08-19T13:24:13;1.87;1.84;
62631;PMS5003;48703;51.248;-0.546;2022-08-19T13:27:15;3.00;2.40;
62631;PMS5003;48703;51.248;-0.546;2022-08-19T13:30:16;3.23;2.71;
62631;PMS5003;48703;51.248;-0.546;2022-08-19T13:33:17;2.84;1.51;
62631;PMS5003;48703;51.248;-0.546;2022-08-19T13:36:19;2.06;1.66;
62631;PMS5003;48703;51.248;-0.546;2022-08-19T13:39:20;1.87;1.36;
62631;PMS5003;48703;51.248;-0.546;2022-08-19T13:42:21;2.03;1.87;
62631;PMS5003;48703;51.248;-0.546;2022-08-19T13:45:24;3.43;2.17;
62631;PMS5003;48703;51.248;-0.546;2022-08-19T13:48:25;1.59;1.44;
62631;PMS5003;48703;51.248;-0.546;2022-08-19T13:51:26;1.99;1.77;
62631;PMS5003;48703;51.248;-0.546;2022-08-19T13:54:27;2.56;2.53;
62631;PMS5003;48703;51.248;-0.546;2022-08-19T13:57:28;2.16;2.06;
62631;PMS5003;48703;51.248;-0.546;2022-08-19T14:00:31;1.59;1.23;
62631;PMS5003;48703;51.248;-0.546;2022-08-19T14:03:31;3.53;2.27;
62631;PMS5003;48703;51.248;-0.546;2022-08-19T14:06:33;2.20;1.79;
62631;PMS5003;48703;51.248;-0.546;2022-08-19T14:09:34;1.91;1.91;
62631;PMS5003;48703;51.248;-0.546;2022-08-19T14:12:35;1.97;1.47;
62631;PMS5003;48703;51.248;-0.546;2022-08-19T14:15:37;1.79;1.44;
62631;PMS5003;48703;51.248;-0.546;2022-08-19T14:18:38;2.16;1.86;
62631;PMS5003;48703;51.248;-0.546;2022-08-19T14:21:40;2.13;2.04;
62631;PMS5003;48703;51.248;-0.546;2022-08-19T14:24:41;3.77;3.00;
62631;PMS5003;48703;51.248;-0.546;2022-08-19T14:27:42;2.24;1.73;
62631;PMS5003;48703;51.248;-0.546;2022-08-19T14:30:44;2.83;2.14;
62631;PMS5003;48703;51.248;-0.546;2022-08-19T14:33:45;2.70;2.64;
62631;PMS5003;48703;51.248;-0.546;2022-08-19T14:36:46;2.11;2.11;
62631;PMS5003;48703;51.248;-0.546;2022-08-19T14:39:48;3.67;3.33;
62631;PMS5003;48703;51.248;-0.546;2022-08-19T14:42:49;4.00;3.00;
62631;PMS5003;48703;51.248;-0.546;2022-08-19T14:45:50;2.50;1.29;
62631;PMS5003;48703;51.248;-0.546;2022-08-19T14:48:52;5.51;4.17;
62631;PMS5003;48703;51.248;-0.546;2022-08-19T14:51:53;3.40;2.99;
62631;PMS5003;48703;51.248;-0.546;2022-08-19T14:54:55;3.79;2.49;
62631;PMS5003;48703;51.248;-0.546;2022-08-19T14:57:56;5.00;4.03;
62631;PMS5003;48703;51.248;-0.546;2022-08-19T15:00:58;4.54;3.60;
62631;PMS5003;48703;51.248;-0.546;2022-08-19T15:03:59;3.21;3.04;
62631;PMS5003;48703;51.248;-0.546;2022-08-19T15:07:00;3.07;2.94;
62631;PMS5003;48703;51.248;-0.546;2022-08-19T15:10:02;5.46;3.66;
62631;PMS5003;48703;51.248;-0.546;2022-08-19T15:13:03;4.10;3.99;
62631;PMS5003;48703;51.248;-0.546;2022-08-19T15:16:04;3.41;3.36;
62631;PMS5003;48703;51.248;-0.546;2022-08-19T15:19:06;2.87;2.49;
62631;PMS5003;48703;51.248;-0.546;2022-08-19T15:22:07;3.19;2.84;
62631;PMS5003;48703;51.248;-0.546;2022-08-19T15:25:10;3.71;2.94;
62631;PMS5003;48703;51.248;-0.546;2022-08-19T15:28:10;3.79;2.83;
62631;PMS5003;48703;51.248;-0.546;2022-08-19T15:31:11;3.51;3.04;
62631;PMS5003;48703;51.248;-0.546;2022-08-19T15:34:12;4.00;3.09;
62631;PMS5003;48703;51.248;-0.546;2022-08-19T15:37:14;3.94;3.04;
62631;PMS5003;48703;51.248;-0.546;2022-08-19T15:40:16;2.66;1.80;
62631;PMS5003;48703;51.248;-0.546;2022-08-19T15:43:17;2.19;2.19;
62631;PMS5003;48703;51.248;-0.546;2022-08-19T15:46:19;2.53;2.01;
62631;PMS5003;48703;51.248;-0.546;2022-08-19T15:49:19;2.57;2.49;
62631;PMS5003;48703;51.248;-0.546;2022-08-19T15:52:21;2.67;2.54;
62631;PMS5003;48703;51.248;-0.546;2022-08-19T15:55:23;2.89;2.23;
62631;PMS5003;48703;51.248;-0.546;2022-08-19T15:58:24;2.49;2.26;
62631;PMS5003;48703;51.248;-0.546;2022-08-19T16:01:25;3.37;2.94;
62631;PMS5003;48703;51.248;-0.546;2022-08-19T16:04:26;3.36;3.17;
62631;PMS5003;48703;51.248;-0.546;2022-08-19T16:07:28;2.73;2.43;
62631;PMS5003;48703;51.248;-0.546;2022-08-19T16:10:29;3.39;2.87;
62631;PMS5003;48703;51.248;-0.546;2022-08-19T16:13:30;3.60;3.04;
62631;PMS5003;48703;51.248;-0.546;2022-08-19T16:16:32;3.46;3.29;
62631;PMS5003;48703;51.248;-0.546;2022-08-19T16:19:33;3.37;3.23;
62631;PMS5003;48703;51.248;-0.546;2022-08-19T16:22:35;2.89;2.89;
62631;PMS5003;48703;51.248;-0.546;2022-08-19T16:25:36;3.57;2.24;
62631;PMS5003;48703;51.248;-0.546;2022-08-19T16:28:37;2.50;2.01;
62631;PMS5003;48703;51.248;-0.546;2022-08-19T16:31:39;2.77;1.97;
62631;PMS5003;48703;51.248;-0.546;2022-08-19T16:34:41;3.10;2.19;
62631;PMS5003;48703;51.248;-0.546;2022-08-19T16:37:41;3.04;2.19;
62631;PMS5003;48703;51.248;-0.546;2022-08-19T16:40:42;2.91;2.66;
62631;PMS5003;48703;51.248;-0.546;2022-08-19T16:43:44;4.04;2.81;
62631;PMS5003;48703;51.248;-0.546;2022-08-19T16:46:45;2.91;2.91;
62631;PMS5003;48703;51.248;-0.546;2022-08-19T16:49:47;3.50;2.76;
62631;PMS5003;48703;51.248;-0.546;2022-08-19T16:52:48;2.87;2.24;
62631;PMS5003;48703;51.248;-0.546;2022-08-19T16:55:49;3.41;3.07;
62631;PMS5003;48703;51.248;-0.546;2022-08-19T16:58:51;4.16;3.23;
62631;PMS5003;48703;51.248;-0.546;2022-08-19T17:01:52;2.44;1.87;
62631;PMS5003;48703;51.248;-0.546;2022-08-19T17:04:53;4.27;3.31;
62631;PMS5003;48703;51.248;-0.546;2022-08-19T17:07:55;4.44;3.24;
62631;PMS5003;48703;51.248;-0.546;2022-08-19T17:10:57;4.89;3.16;
62631;PMS5003;48703;51.248;-0.546;2022-08-19T17:13:58;4.13;2.96;
62631;PMS5003;48703;51.248;-0.546;2022-08-19T17:16:59;3.13;2.31;
62631;PMS5003;48703;51.248;-0.546;2022-08-19T17:20:00;3.49;2.24;
62631;PMS5003;48703;51.248;-0.546;2022-08-19T17:23:02;2.64;2.10;
62631;PMS5003;48703;51.248;-0.546;2022-08-19T17:26:03;3.37;2.46;
62631;PMS5003;48703;51.248;-0.546;2022-08-19T17:29:05;2.80;2.47;
62631;PMS5003;48703;51.248;-0.546;2022-08-19T17:32:06;3.27;2.83;
62631;PMS5003;48703;51.248;-0.546;2022-08-19T17:35:08;2.86;2.33;
62631;PMS5003;48703;51.248;-0.546;2022-08-19T17:38:09;4.53;3.96;
62631;PMS5003;48703;51.248;-0.546;2022-08-19T17:41:10;2.56;2.56;
62631;PMS5003;48703;51.248;-0.546;2022-08-19T17:44:11;3.46;2.13;
62631;PMS5003;48703;51.248;-0.546;2022-08-19T17:47:13;3.10;3.10;
62631;PMS5003;48703;51.248;-0.546;2022-08-19T17:50:14;2.51;2.11;
62631;PMS5003;48703;51.248;-0.546;2022-08-19T17:53:15;3.66;3.66;
62631;PMS5003;48703;51.248;-0.546;2022-08-19T17:56:17;2.33;1.86;
62631;PMS5003;48703;51.248;-0.546;2022-08-19T17:59:18;1.79;1.47;
62631;PMS5003;48703;51.248;-0.546;2022-08-19T18:02:20;1.80;1.80;
62631;PMS5003;48703;51.248;-0.546;2022-08-19T18:05:22;2.50;2.21;
62631;PMS5003;48703;51.248;-0.546;2022-08-19T18:08:22;2.19;1.81;
62631;PMS5003;48703;51.248;-0.546;2022-08-19T18:11:24;2.00;1.57;
62631;PMS5003;48703;51.248;-0.546;2022-08-19T18:14:26;1.97;1.69;
62631;PMS5003;48703;51.248;-0.546;2022-08-19T18:17:27;2.13;1.44;
62631;PMS5003;48703;51.248;-0.546;2022-08-19T18:20:28;2.07;1.30;
62631;PMS5003;48703;51.248;-0.546;2022-08-19T18:23:29;2.06;1.67;
62631;PMS5003;48703;51.248;-0.546;2022-08-19T18:26:31;1.53;1.26;
62631;PMS5003;48703;51.248;-0.546;2022-08-19T18:29:32;1.89;1.46;
62631;PMS5003;48703;51.248;-0.546;2022-08-19T18:32:33;2.16;1.67;